Time;durP1;ratioP1;P1;durP2;ratioP2;P2;SDS_P1;SDS_P2;PMS_P1;PMS_P2;Temp;Humidity;BMP_temperature;BMP_pressure;BME280_temperature;BME280_humidity;BME280_pressure;Samples;Min_cycle;Max_cycle;Signal;HPM_P1;HPM_P2
2021/11/14 00:19:15;;;;;;;3.78;3.10;;;;;;;;;;4467301;28;20117;-64
2021/11/14 00:21:41;;;;;;;3.50;3.20;;;;;;;;;;4210712;33;20154;-65
2021/11/14 00:24:10;;;;;;;4.43;2.90;;;;;;;;;;4226252;33;20121;-65
2021/11/14 00:26:36;;;;;;;3.25;2.80;;;;;;;;;;4218501;34;20150;-65
2021/11/14 00:29:02;;;;;;;4.47;2.83;;;;;;;;;;4215355;33;20488;-60
2021/11/14 00:31:28;;;;;;;3.42;3.00;;;;;;;;;;4233939;33;20144;-66
2021/11/14 00:33:54;;;;;;;3.78;3.30;;;;;;;;;;4233311;33;20194;-66
2021/11/14 00:36:22;;;;;;;3.80;3.50;;;;;;;;;;4218865;33;20120;-66
2021/11/14 00:38:49;;;;;;;4.07;3.75;;;;;;;;;;4219555;34;20101;-62
2021/11/14 00:41:15;;;;;;;4.75;4.10;;;;;;;;;;4219618;34;20105;-61
2021/11/14 00:43:41;;;;;;;5.20;4.00;;;;;;;;;;4219778;34;20185;-61
2021/11/14 00:46:07;;;;;;;4.40;3.95;;;;;;;;;;4219518;34;20125;-62
2021/11/14 00:48:33;;;;;;;3.30;3.00;;;;;;;;;;4219442;34;20149;-61
2021/11/14 00:51:03;;;;;;;3.30;3.00;;;;;;;;;;4219457;34;20105;-66
2021/11/14 00:53:29;;;;;;;3.10;2.80;;;;;;;;;;4221457;33;20128;-65
2021/11/14 00:55:55;;;;;;;3.42;3.05;;;;;;;;;;4233656;33;20102;-66
2021/11/14 00:58:21;;;;;;;3.95;2.90;;;;;;;;;;4233501;33;20105;-65
2021/11/14 01:00:47;;;;;;;3.08;2.78;;;;;;;;;;4233303;33;20189;-66
2021/11/14 01:03:13;;;;;;;3.42;2.90;;;;;;;;;;4233381;33;20217;-66
2021/11/14 01:05:41;;;;;;;3.12;2.83;;;;;;;;;;4233338;33;20461;-65
2021/11/14 01:08:08;;;;;;;3.78;2.70;;;;;;;;;;4220661;33;20617;-65
2021/11/14 01:10:36;;;;;;;3.40;2.75;;;;;;;;;;4233493;33;20172;-65
2021/11/14 01:13:02;;;;;;;2.78;2.42;;;;;;;;;;4233319;33;20109;-66
2021/11/14 01:15:28;;;;;;;2.65;2.40;;;;;;;;;;4233340;33;20536;-66
2021/11/14 01:17:54;;;;;;;3.30;2.95;;;;;;;;;;4233453;33;20096;-65
2021/11/14 01:20:23;;;;;;;2.97;2.30;;;;;;;;;;4233282;33;20097;-66
2021/11/14 01:22:49;;;;;;;2.90;2.45;;;;;;;;;;4206451;34;20117;-65
2021/11/14 01:25:16;;;;;;;3.50;2.70;;;;;;;;;;4219194;34;20137;-66
2021/11/14 01:27:42;;;;;;;2.60;2.40;;;;;;;;;;4219397;34;20109;-66
2021/11/14 01:30:11;;;;;;;2.55;2.35;;;;;;;;;;4219122;34;20125;-66
2021/11/14 01:32:37;;;;;;;2.53;2.30;;;;;;;;;;4219313;34;20117;-66
2021/11/14 01:35:05;;;;;;;2.47;2.28;;;;;;;;;;4219044;34;20435;-66
2021/11/14 01:37:30;;;;;;;2.28;2.08;;;;;;;;;;4218566;34;20209;-66
2021/11/14 01:39:56;;;;;;;2.40;2.05;;;;;;;;;;4218938;34;20132;-66
2021/11/14 01:42:22;;;;;;;2.10;1.90;;;;;;;;;;4219144;34;20289;-66
2021/11/14 01:44:48;;;;;;;2.20;2.00;;;;;;;;;;4218797;34;20119;-66
2021/11/14 01:47:14;;;;;;;2.60;2.40;;;;;;;;;;4219167;34;20196;-66
2021/11/14 01:49:41;;;;;;;1.98;1.87;;;;;;;;;;4218973;34;20521;-66
2021/11/14 01:52:18;;;;;;;1.90;1.73;;;;;;;;;;4219043;34;20533;-66
2021/11/14 01:54:44;;;;;;;2.33;2.12;;;;;;;;;;4207905;33;20124;-66
2021/11/14 01:57:10;;;;;;;2.25;2.05;;;;;;;;;;4233022;33;20124;-66
2021/11/14 01:59:37;;;;;;;2.40;2.03;;;;;;;;;;4232851;33;20133;-67
2021/11/14 02:02:03;;;;;;;2.22;2.03;;;;;;;;;;4232907;33;20104;-66
2021/11/14 02:04:29;;;;;;;2.22;2.03;;;;;;;;;;4233196;33;20117;-66
2021/11/14 02:06:55;;;;;;;2.45;2.25;;;;;;;;;;4232901;33;20136;-66
2021/11/14 02:09:21;;;;;;;2.60;2.40;;;;;;;;;;4232666;33;20128;-66
2021/11/14 02:11:46;;;;;;;2.25;2.00;;;;;;;;;;4232680;33;20204;-66
2021/11/14 02:14:12;;;;;;;2.80;2.22;;;;;;;;;;4232967;33;20212;-66
2021/11/14 02:16:38;;;;;;;1.90;1.80;;;;;;;;;;4232887;33;20115;-66
2021/11/14 02:19:04;;;;;;;2.25;2.05;;;;;;;;;;4232533;33;20175;-66
2021/11/14 02:21:30;;;;;;;2.47;2.20;;;;;;;;;;4230861;33;20159;-66
2021/11/14 02:23:56;;;;;;;1.83;1.73;;;;;;;;;;4218587;34;20106;-66
2021/11/14 02:26:23;;;;;;;2.00;1.90;;;;;;;;;;4218659;34;20136;-66
2021/11/14 02:28:50;;;;;;;2.22;2.10;;;;;;;;;;4218712;34;20989;-67
2021/11/14 02:31:16;;;;;;;2.20;2.00;;;;;;;;;;4218636;34;20118;-67
2021/11/14 02:33:42;;;;;;;1.90;1.80;;;;;;;;;;4218771;34;20120;-66
2021/11/14 02:36:08;;;;;;;2.05;1.90;;;;;;;;;;4218646;34;20103;-65
2021/11/14 02:38:34;;;;;;;2.25;2.05;;;;;;;;;;4218486;34;20120;-66
2021/11/14 02:41:00;;;;;;;2.50;2.30;;;;;;;;;;4218451;34;20124;-66
2021/11/14 02:43:26;;;;;;;2.37;2.00;;;;;;;;;;4218399;34;20105;-66
2021/11/14 02:45:52;;;;;;;2.58;2.10;;;;;;;;;;4218762;34;20093;-66
2021/11/14 02:48:18;;;;;;;1.92;1.83;;;;;;;;;;4218210;34;20184;-66
2021/11/14 02:50:45;;;;;;;2.15;1.95;;;;;;;;;;4218307;34;20086;-66
2021/11/14 02:53:11;;;;;;;2.42;2.22;;;;;;;;;;4218389;34;20529;-66
2021/11/14 02:55:37;;;;;;;3.20;2.17;;;;;;;;;;4218415;34;20109;-66
2021/11/14 02:58:03;;;;;;;1.92;1.80;;;;;;;;;;4218243;34;20589;-66
2021/11/14 03:00:35;;;;;;;3.67;2.15;;;;;;;;;;4218287;34;20201;-67
2021/11/14 03:03:01;;;;;;;2.65;2.17;;;;;;;;;;4218295;34;20108;-64
2021/11/14 03:05:27;;;;;;;1.95;1.85;;;;;;;;;;4218348;34;20109;-66
2021/11/14 03:07:54;;;;;;;2.00;1.80;;;;;;;;;;4218246;34;20113;-66
2021/11/14 03:10:26;;;;;;;2.08;1.80;;;;;;;;;;4218301;34;20117;-67
2021/11/14 03:13:04;;;;;;;1.90;1.80;;;;;;;;;;4218204;34;20121;-66
2021/11/14 03:15:32;;;;;;;1.90;1.80;;;;;;;;;;4218548;34;20172;-66
2021/11/14 03:17:58;;;;;;;1.90;1.80;;;;;;;;;;4218036;34;20115;-66
2021/11/14 03:20:23;;;;;;;2.00;1.80;;;;;;;;;;4218428;34;20212;-66
2021/11/14 03:22:49;;;;;;;2.40;1.98;;;;;;;;;;4217832;34;20151;-66
2021/11/14 03:25:20;;;;;;;2.30;1.95;;;;;;;;;;4218355;34;20135;-66
2021/11/14 03:27:45;;;;;;;1.60;1.50;;;;;;;;;;4218227;34;20129;-66
2021/11/14 03:30:14;;;;;;;1.70;1.60;;;;;;;;;;4218157;34;20335;-66
2021/11/14 03:32:40;;;;;;;1.75;1.65;;;;;;;;;;4205560;34;20101;-66
2021/11/14 03:35:06;;;;;;;1.80;1.70;;;;;;;;;;4218108;34;20139;-66
2021/11/14 03:37:32;;;;;;;1.60;1.50;;;;;;;;;;4217901;34;20117;-66
2021/11/14 03:39:58;;;;;;;1.85;1.67;;;;;;;;;;4218047;34;20149;-66
2021/11/14 03:42:24;;;;;;;1.95;1.80;;;;;;;;;;4217934;34;20557;-66
2021/11/14 03:44:50;;;;;;;2.67;1.98;;;;;;;;;;4217968;34;20135;-66
2021/11/14 03:47:16;;;;;;;2.67;1.87;;;;;;;;;;4217929;34;20544;-66
2021/11/14 03:49:42;;;;;;;1.87;1.60;;;;;;;;;;4218138;34;20150;-66
2021/11/14 03:52:09;;;;;;;1.67;1.58;;;;;;;;;;4217809;34;20438;-66
2021/11/14 03:54:35;;;;;;;3.08;2.15;;;;;;;;;;4205147;34;20132;-66
2021/11/14 03:57:01;;;;;;;1.70;1.60;;;;;;;;;;4205141;34;20216;-66
2021/11/14 03:59:26;;;;;;;2.22;1.80;;;;;;;;;;4217697;34;20120;-66
2021/11/14 04:01:52;;;;;;;2.05;1.85;;;;;;;;;;4219164;34;20117;-66
2021/11/14 04:04:18;;;;;;;2.70;2.30;;;;;;;;;;4219987;34;20175;-66
2021/11/14 04:06:44;;;;;;;2.40;1.80;;;;;;;;;;4220151;34;20123;-67
2021/11/14 04:09:10;;;;;;;3.35;2.05;;;;;;;;;;4219814;34;20113;-66
2021/11/14 04:11:35;;;;;;;1.83;1.73;;;;;;;;;;4219797;34;20510;-66
2021/11/14 04:14:01;;;;;;;2.20;2.00;;;;;;;;;;4219874;34;20109;-65
2021/11/14 04:16:27;;;;;;;1.95;1.77;;;;;;;;;;4220051;34;20124;-66
2021/11/14 04:18:53;;;;;;;2.40;1.92;;;;;;;;;;4219539;34;20144;-64
2021/11/14 04:21:19;;;;;;;2.17;1.98;;;;;;;;;;4219976;34;20571;-65
2021/11/14 04:23:44;;;;;;;1.80;1.70;;;;;;;;;;4219557;34;20102;-65
2021/11/14 04:26:10;;;;;;;2.45;1.80;;;;;;;;;;4219967;34;20206;-65
2021/11/14 04:28:36;;;;;;;2.08;1.87;;;;;;;;;;4219534;34;20151;-62
2021/11/14 04:31:02;;;;;;;2.00;1.80;;;;;;;;;;4219603;34;20128;-62
2021/11/14 04:33:28;;;;;;;2.12;1.85;;;;;;;;;;4219587;34;20204;-62
2021/11/14 04:35:54;;;;;;;2.15;1.95;;;;;;;;;;4206790;34;20133;-63
2021/11/14 04:38:20;;;;;;;2.72;2.15;;;;;;;;;;4219555;34;20223;-61
2021/11/14 04:40:47;;;;;;;2.35;2.15;;;;;;;;;;4219535;34;20552;-60
2021/11/14 04:43:13;;;;;;;2.15;1.98;;;;;;;;;;4219830;34;20521;-61
2021/11/14 04:45:40;;;;;;;2.85;2.20;;;;;;;;;;4219492;34;20538;-61
2021/11/14 04:48:06;;;;;;;2.78;2.08;;;;;;;;;;4219740;34;20105;-62
2021/11/14 04:50:32;;;;;;;2.33;2.12;;;;;;;;;;4219857;34;20112;-62
2021/11/14 04:52:58;;;;;;;2.60;2.40;;;;;;;;;;4219722;34;20301;-62
2021/11/14 04:55:24;;;;;;;3.10;2.62;;;;;;;;;;4219975;34;20141;-62
2021/11/14 04:57:52;;;;;;;4.00;2.65;;;;;;;;;;4219379;34;20196;-62
2021/11/14 05:00:21;;;;;;;3.22;2.92;;;;;;;;;;4207041;34;20201;-62
2021/11/14 05:02:47;;;;;;;2.80;2.60;;;;;;;;;;4219458;34;20109;-60
2021/11/14 05:05:13;;;;;;;2.72;2.50;;;;;;;;;;4219739;34;20113;-60
2021/11/14 05:07:39;;;;;;;3.75;2.95;;;;;;;;;;4219144;34;20110;-61
2021/11/14 05:10:05;;;;;;;2.62;2.30;;;;;;;;;;4219440;34;20545;-61
2021/11/14 05:12:31;;;;;;;3.03;2.12;;;;;;;;;;4218922;34;20453;-61
2021/11/14 05:14:57;;;;;;;2.47;2.20;;;;;;;;;;4219222;34;20133;-62
2021/11/14 05:17:23;;;;;;;2.95;2.22;;;;;;;;;;4219459;34;20181;-61
2021/11/14 05:19:49;;;;;;;2.40;2.10;;;;;;;;;;4219327;34;20128;-61
2021/11/14 05:22:15;;;;;;;2.78;2.50;;;;;;;;;;4219241;34;20150;-61
2021/11/14 05:24:41;;;;;;;3.42;3.12;;;;;;;;;;4219026;34;20113;-62
2021/11/14 05:27:07;;;;;;;6.87;6.18;;;;;;;;;;4219072;34;20112;-61
2021/11/14 05:29:33;;;;;;;17.40;10.60;;;;;;;;;;4219151;34;20121;-61
2021/11/14 05:31:59;;;;;;;31.30;20.35;;;;;;;;;;4206164;34;20105;-60
2021/11/14 05:34:25;;;;;;;31.85;19.65;;;;;;;;;;4218968;34;20676;-62
2021/11/14 05:36:51;;;;;;;12.90;8.82;;;;;;;;;;4205989;34;20112;-60
2021/11/14 05:39:17;;;;;;;10.02;5.62;;;;;;;;;;4219264;34;20213;-62
2021/11/14 05:41:44;;;;;;;4.72;2.80;;;;;;;;;;4218878;34;20128;-62
2021/11/14 05:44:10;;;;;;;6.28;5.05;;;;;;;;;;4218833;34;20125;-61
2021/11/14 05:46:35;;;;;;;6.22;4.97;;;;;;;;;;4206038;34;20106;-61
2021/11/14 05:49:06;;;;;;;17.70;13.27;;;;;;;;;;4219133;34;20477;-61
2021/11/14 05:51:32;;;;;;;14.87;13.25;;;;;;;;;;4218933;34;20470;-63
2021/11/14 05:53:58;;;;;;;20.42;16.90;;;;;;;;;;4219134;34;20098;-60
2021/11/14 05:56:24;;;;;;;27.58;19.45;;;;;;;;;;4218856;34;20583;-61
2021/11/14 05:59:00;;;;;;;33.70;26.85;;;;;;;;;;4217438;34;20127;-60
2021/11/14 06:01:32;;;;;;;26.77;20.42;;;;;;;;;;4218828;34;20211;-62
2021/11/14 06:06:23;;;;;;;11.98;8.32;;;;;;;;;;4218748;34;20112;-62
2021/11/14 06:08:49;;;;;;;31.87;22.48;;;;;;;;;;4218678;34;20133;-62
2021/11/14 06:11:15;;;;;;;30.58;25.02;;;;;;;;;;4218806;34;20137;-63
2021/11/14 06:13:41;;;;;;;63.38;49.80;;;;;;;;;;4205629;34;20213;-64
2021/11/14 06:16:07;;;;;;;35.65;29.27;;;;;;;;;;4218708;34;20133;-63
2021/11/14 06:18:32;;;;;;;8.25;6.90;;;;;;;;;;4205568;34;20209;-65
2021/11/14 06:21:00;;;;;;;8.73;6.70;;;;;;;;;;4218908;34;20101;-65
2021/11/14 06:23:26;;;;;;;8.07;5.97;;;;;;;;;;4205253;34;20111;-66
2021/11/14 06:25:52;;;;;;;10.45;7.20;;;;;;;;;;4218640;34;20273;-65
2021/11/14 06:28:18;;;;;;;12.75;7.97;;;;;;;;;;4218494;34;20472;-63
2021/11/14 06:30:43;;;;;;;23.98;12.90;;;;;;;;;;4205975;34;20117;-65
2021/11/14 06:33:09;;;;;;;20.33;13.27;;;;;;;;;;4205629;34;20123;-65
2021/11/14 06:35:35;;;;;;;20.50;14.73;;;;;;;;;;4218559;34;20156;-64
2021/11/14 06:38:01;;;;;;;6.82;5.03;;;;;;;;;;4218365;34;20105;-64
2021/11/14 06:40:27;;;;;;;3.03;2.25;;;;;;;;;;4218534;34;20105;-64
2021/11/14 06:42:53;;;;;;;3.15;1.70;;;;;;;;;;4205407;34;20136;-64
2021/11/14 06:45:19;;;;;;;2.47;1.80;;;;;;;;;;4218546;34;20132;-65
2021/11/14 06:47:45;;;;;;;18.37;2.45;;;;;;;;;;4218270;34;20542;-64
2021/11/14 06:50:11;;;;;;;2.05;1.83;;;;;;;;;;4218824;34;20129;-66
2021/11/14 06:52:41;;;;;;;3.53;2.25;;;;;;;;;;4218376;34;20113;-64
2021/11/14 06:55:08;;;;;;;9.00;5.00;;;;;;;;;;4218467;34;20197;-63
2021/11/14 06:57:33;;;;;;;2.10;1.92;;;;;;;;;;4218468;34;20458;-63
2021/11/14 06:59:59;;;;;;;2.30;2.10;;;;;;;;;;4218426;34;20170;-63
2021/11/14 07:02:25;;;;;;;5.55;3.33;;;;;;;;;;4218264;34;20094;-63
2021/11/14 07:04:51;;;;;;;3.25;2.12;;;;;;;;;;4218204;34;20213;-63
2021/11/14 07:07:17;;;;;;;4.20;3.42;;;;;;;;;;4218128;34;20510;-65
2021/11/14 07:09:43;;;;;;;5.03;3.85;;;;;;;;;;4218159;34;20524;-64
2021/11/14 07:12:10;;;;;;;4.95;3.00;;;;;;;;;;4205270;34;20143;-65
2021/11/14 07:14:36;;;;;;;3.25;2.35;;;;;;;;;;4218247;34;20116;-60
2021/11/14 07:17:19;;;;;;;3.75;2.25;;;;;;;;;;4218148;34;20140;-61
2021/11/14 07:19:45;;;;;;;2.10;1.90;;;;;;;;;;4217809;33;20122;-60
2021/11/14 07:22:11;;;;;;;2.53;2.28;;;;;;;;;;4218306;34;20123;-64
2021/11/14 07:25:14;;;;;;;;;;;;;;;;;;;;;
2021/11/14 07:28:27;;;;;;;3.47;2.97;;;;;;;;;;4177906;28;20211;-64
2021/11/14 07:30:53;;;;;;;3.30;2.70;;;;;;;;;;4183429;34;20115;-68
2021/11/14 07:33:19;;;;;;;3.25;2.70;;;;;;;;;;4210274;33;20116;-63
2021/11/14 07:35:45;;;;;;;2.15;1.58;;;;;;;;;;4219186;34;20223;-62
2021/11/14 07:38:12;;;;;;;3.00;2.10;;;;;;;;;;4215063;34;20108;-63
2021/11/14 07:40:38;;;;;;;2.10;1.75;;;;;;;;;;4219743;34;20121;-63
2021/11/14 07:43:04;;;;;;;3.62;2.03;;;;;;;;;;4219957;34;20214;-63
2021/11/14 07:45:30;;;;;;;3.30;1.60;;;;;;;;;;4220261;34;20547;-64
2021/11/14 07:47:57;;;;;;;1.67;1.58;;;;;;;;;;4220097;34;20121;-65
2021/11/14 07:50:25;;;;;;;1.95;1.75;;;;;;;;;;4219898;34;20489;-64
2021/11/14 07:52:50;;;;;;;2.90;2.12;;;;;;;;;;4220185;34;20560;-71
2021/11/14 07:55:16;;;;;;;4.95;1.67;;;;;;;;;;4220414;34;20104;-71
2021/11/14 07:57:43;;;;;;;2.00;1.80;;;;;;;;;;4219845;34;20532;-72
2021/11/14 08:00:15;;;;;;;3.30;2.05;;;;;;;;;;4219221;34;20109;-72
2021/11/14 08:02:41;;;;;;;1.85;1.70;;;;;;;;;;4207623;33;20122;-71
2021/11/14 08:05:07;;;;;;;2.20;1.70;;;;;;;;;;4207030;34;20106;-74
2021/11/14 08:07:39;;;;;;;1.62;1.40;;;;;;;;;;4220022;34;20215;-75
2021/11/14 08:10:05;;;;;;;1.80;1.65;;;;;;;;;;4220085;34;20120;-74
2021/11/14 08:12:31;;;;;;;3.25;1.70;;;;;;;;;;4219827;34;20094;-72
2021/11/14 08:14:57;;;;;;;2.95;2.30;;;;;;;;;;4219601;34;20094;-72
2021/11/14 08:17:23;;;;;;;3.53;2.10;;;;;;;;;;4219970;34;20140;-72
2021/11/14 08:19:49;;;;;;;3.22;1.92;;;;;;;;;;4219853;33;20554;-73
2021/11/14 08:22:15;;;;;;;4.18;2.00;;;;;;;;;;4219769;34;20297;-71
2021/11/14 08:24:41;;;;;;;1.87;1.60;;;;;;;;;;4219556;33;20086;-73
2021/11/14 08:27:07;;;;;;;2.28;1.50;;;;;;;;;;4219812;34;20144;-70
2021/11/14 08:29:33;;;;;;;2.05;1.48;;;;;;;;;;4219668;33;20105;-71
2021/11/14 08:31:59;;;;;;;1.98;1.80;;;;;;;;;;4220005;34;20114;-71
2021/11/14 08:34:24;;;;;;;1.80;1.70;;;;;;;;;;4219323;34;20108;-71
2021/11/14 08:36:50;;;;;;;2.20;1.60;;;;;;;;;;4219718;34;20533;-70
2021/11/14 08:39:16;;;;;;;3.17;2.22;;;;;;;;;;4219813;34;20115;-69
2021/11/14 08:41:42;;;;;;;3.15;2.40;;;;;;;;;;4219638;34;20167;-70
2021/11/14 08:44:08;;;;;;;5.60;2.12;;;;;;;;;;4219366;34;20136;-70
2021/11/14 08:46:34;;;;;;;2.83;2.25;;;;;;;;;;4219333;34;20299;-70
2021/11/14 08:49:00;;;;;;;2.12;1.70;;;;;;;;;;4219234;34;20190;-70
2021/11/14 08:51:26;;;;;;;3.55;2.37;;;;;;;;;;4218477;34;20117;-71
2021/11/14 08:53:58;;;;;;;1.95;1.80;;;;;;;;;;4219440;34;20117;-70
2021/11/14 08:56:28;;;;;;;2.30;1.90;;;;;;;;;;4219461;34;20216;-70
2021/11/14 08:58:54;;;;;;;2.30;2.10;;;;;;;;;;4219348;34;20105;-71
2021/11/14 09:01:20;;;;;;;1.80;1.70;;;;;;;;;;4219338;34;20209;-70
2021/11/14 09:03:45;;;;;;;1.62;1.50;;;;;;;;;;4219291;34;20219;-71
2021/11/14 09:06:11;;;;;;;3.08;2.00;;;;;;;;;;4219364;34;20143;-72
2021/11/14 09:08:40;;;;;;;4.05;2.00;;;;;;;;;;4219217;34;20106;-71
2021/11/14 09:11:06;;;;;;;3.20;2.50;;;;;;;;;;4219559;34;20101;-71
2021/11/14 09:13:32;;;;;;;1.83;1.70;;;;;;;;;;4219168;34;20121;-71
2021/11/14 09:15:58;;;;;;;3.90;2.55;;;;;;;;;;4219140;34;20523;-71
2021/11/14 09:18:25;;;;;;;5.47;3.10;;;;;;;;;;4219046;34;20125;-71
2021/11/14 09:20:51;;;;;;;2.85;1.98;;;;;;;;;;4219123;34;20156;-68
2021/11/14 09:23:17;;;;;;;2.10;1.90;;;;;;;;;;4219058;34;20132;-69
2021/11/14 09:25:43;;;;;;;2.65;1.60;;;;;;;;;;4219143;34;20179;-69
2021/11/14 09:28:12;;;;;;;1.70;1.48;;;;;;;;;;4219001;34;20514;-70
2021/11/14 09:30:44;;;;;;;1.70;1.60;;;;;;;;;;4219065;34;20249;-69
2021/11/14 09:33:12;;;;;;;1.85;1.65;;;;;;;;;;4219169;34;20132;-69
2021/11/14 09:35:38;;;;;;;2.12;1.67;;;;;;;;;;4219448;34;20105;-70
2021/11/14 09:38:04;;;;;;;1.83;1.50;;;;;;;;;;4219194;34;20244;-72
2021/11/14 09:40:30;;;;;;;1.48;1.37;;;;;;;;;;4218846;34;20098;-69
2021/11/14 09:42:57;;;;;;;1.70;1.60;;;;;;;;;;4218722;34;20111;-71
2021/11/14 09:45:27;;;;;;;2.45;1.92;;;;;;;;;;4218805;34;20135;-71
2021/11/14 09:47:53;;;;;;;3.00;1.70;;;;;;;;;;4218755;34;20628;-71
2021/11/14 09:50:19;;;;;;;2.53;2.10;;;;;;;;;;4206160;34;20192;-71
2021/11/14 09:52:45;;;;;;;1.98;1.75;;;;;;;;;;4218703;34;20232;-70
2021/11/14 09:55:11;;;;;;;2.85;2.45;;;;;;;;;;4218629;34;20539;-70
2021/11/14 09:57:40;;;;;;;2.70;1.70;;;;;;;;;;4218624;34;20136;-71
2021/11/14 10:00:08;;;;;;;3.67;1.98;;;;;;;;;;4218053;34;20124;-70
2021/11/14 10:02:35;;;;;;;2.20;1.95;;;;;;;;;;4218381;34;20131;-70
2021/11/14 10:05:01;;;;;;;6.50;2.45;;;;;;;;;;4216566;34;20453;-70
2021/11/14 10:07:27;;;;;;;2.75;2.55;;;;;;;;;;4216566;34;20125;-70
2021/11/14 10:09:53;;;;;;;2.00;1.60;;;;;;;;;;4218106;34;20157;-71
2021/11/14 10:12:24;;;;;;;2.42;1.60;;;;;;;;;;4218276;34;20125;-71
2021/11/14 10:15:11;;;;;;;2.28;2.08;;;;;;;;;;4218036;34;20201;-70
2021/11/14 10:17:38;;;;;;;1.65;1.55;;;;;;;;;;4217722;34;20121;-70
2021/11/14 10:20:07;;;;;;;4.40;2.78;;;;;;;;;;4218612;34;20278;-70
2021/11/14 10:22:35;;;;;;;3.12;1.80;;;;;;;;;;4218525;34;20117;-70
2021/11/14 10:25:01;;;;;;;1.70;1.50;;;;;;;;;;4218621;34;20132;-71
2021/11/14 10:27:27;;;;;;;2.35;1.75;;;;;;;;;;4218610;34;20595;-72
2021/11/14 10:29:54;;;;;;;2.05;1.73;;;;;;;;;;4218311;34;20135;-72
2021/11/14 10:32:20;;;;;;;2.58;1.70;;;;;;;;;;4218440;34;20117;-71
2021/11/14 10:34:51;;;;;;;3.42;2.50;;;;;;;;;;4218198;34;20221;-72
2021/11/14 10:37:20;;;;;;;3.83;2.17;;;;;;;;;;4218429;34;20106;-72
2021/11/14 10:39:53;;;;;;;3.95;2.85;;;;;;;;;;4218597;34;20116;-74
2021/11/14 10:42:19;;;;;;;4.72;3.05;;;;;;;;;;4217123;34;20263;-70
2021/11/14 10:44:49;;;;;;;4.45;2.65;;;;;;;;;;4216661;34;20176;-71
2021/11/14 10:47:21;;;;;;;5.43;3.25;;;;;;;;;;4217460;34;20718;-69
2021/11/14 10:49:55;;;;;;;3.12;2.50;;;;;;;;;;4218089;34;20552;-71
2021/11/14 10:52:21;;;;;;;5.07;3.55;;;;;;;;;;4218315;34;20113;-71
2021/11/14 10:54:52;;;;;;;5.03;3.58;;;;;;;;;;4218219;34;20125;-71
2021/11/14 10:57:18;;;;;;;6.22;3.70;;;;;;;;;;4218551;34;20185;-71
2021/11/14 10:59:50;;;;;;;3.03;2.22;;;;;;;;;;4218453;34;20463;-71
2021/11/14 11:02:16;;;;;;;3.80;3.03;;;;;;;;;;4218129;34;20125;-70
2021/11/14 11:04:42;;;;;;;4.57;2.60;;;;;;;;;;4218140;34;20128;-69
2021/11/14 11:07:11;;;;;;;2.50;2.30;;;;;;;;;;4205388;34;20110;-71
2021/11/14 11:09:39;;;;;;;4.30;3.45;;;;;;;;;;4214252;34;20121;-71
2021/11/14 11:12:15;;;;;;;4.97;3.65;;;;;;;;;;4217816;34;20113;-69
2021/11/14 11:14:57;;;;;;;4.68;3.62;;;;;;;;;;4217606;33;20196;-70
2021/11/14 11:17:24;;;;;;;7.28;3.35;;;;;;;;;;4217774;34;20529;-68
2021/11/14 11:19:50;;;;;;;4.65;2.40;;;;;;;;;;4204673;34;20213;-72
2021/11/14 11:22:15;;;;;;;1.98;1.73;;;;;;;;;;4217647;34;20557;-71
2021/11/14 11:24:52;;;;;;;2.45;1.98;;;;;;;;;;4205984;34;20200;-72
2021/11/14 11:27:18;;;;;;;3.40;2.20;;;;;;;;;;4218004;33;20098;-68
2021/11/14 11:29:44;;;;;;;2.15;1.95;;;;;;;;;;4214321;33;20194;-73
2021/11/14 11:32:11;;;;;;;4.22;2.20;;;;;;;;;;4204012;34;20675;-73
2021/11/14 11:34:38;;;;;;;4.12;2.37;;;;;;;;;;4203916;34;20089;-74
2021/11/14 11:37:05;;;;;;;4.15;2.78;;;;;;;;;;4203975;34;20534;-74
2021/11/14 11:39:31;;;;;;;6.80;4.00;;;;;;;;;;4203595;34;20582;-71
2021/11/14 11:41:59;;;;;;;3.90;3.03;;;;;;;;;;4203856;34;20135;-74
2021/11/14 11:44:24;;;;;;;4.00;3.22;;;;;;;;;;4206323;34;20140;-74
2021/11/14 11:46:52;;;;;;;2.92;2.62;;;;;;;;;;4217792;34;20121;-73
2021/11/14 11:49:20;;;;;;;3.85;2.70;;;;;;;;;;4204285;34;20108;-74
2021/11/14 11:51:51;;;;;;;4.32;2.97;;;;;;;;;;4217129;34;20125;-75
2021/11/14 11:54:19;;;;;;;4.15;3.10;;;;;;;;;;4217301;33;20784;-74
2021/11/14 11:57:03;;;;;;;5.62;3.33;;;;;;;;;;4219013;34;20517;-76
2021/11/14 11:59:35;;;;;;;6.37;2.83;;;;;;;;;;4217425;33;20113;-73
2021/11/14 12:02:09;;;;;;;6.78;3.08;;;;;;;;;;4217631;34;20098;-74
2021/11/14 12:04:37;;;;;;;3.08;2.72;;;;;;;;;;4217580;33;20121;-73
2021/11/14 12:07:07;;;;;;;3.45;2.33;;;;;;;;;;4217548;34;20105;-74
2021/11/14 12:09:40;;;;;;;3.22;2.92;;;;;;;;;;4202999;34;20145;-74
2021/11/14 12:12:21;;;;;;;4.22;2.20;;;;;;;;;;4217299;34;20105;-75
2021/11/14 12:14:59;;;;;;;4.53;2.92;;;;;;;;;;4217394;33;20121;-75
2021/11/14 12:17:25;;;;;;;4.05;2.20;;;;;;;;;;4217561;34;20105;-73
2021/11/14 12:19:51;;;;;;;3.50;2.12;;;;;;;;;;4217258;33;20109;-72
2021/11/14 12:22:18;;;;;;;2.85;2.25;;;;;;;;;;4204732;34;20572;-72
2021/11/14 12:24:52;;;;;;;3.33;2.45;;;;;;;;;;4219356;33;20116;-72
2021/11/14 12:27:31;;;;;;;6.70;3.05;;;;;;;;;;4219566;34;20208;-74
2021/11/14 12:29:59;;;;;;;4.55;3.30;;;;;;;;;;4219291;33;20510;-74
2021/11/14 12:32:31;;;;;;;5.30;3.75;;;;;;;;;;4219115;34;20121;-74
2021/11/14 12:35:02;;;;;;;9.55;4.45;;;;;;;;;;4207044;34;20519;-75
2021/11/14 12:37:28;;;;;;;6.20;4.50;;;;;;;;;;4219396;34;20544;-75
2021/11/14 12:39:53;;;;;;;9.00;4.87;;;;;;;;;;4219550;33;20102;-75
2021/11/14 12:42:19;;;;;;;7.15;5.20;;;;;;;;;;4219293;34;20113;-73
2021/11/14 12:44:46;;;;;;;5.45;3.85;;;;;;;;;;4219220;33;20149;-74
2021/11/14 12:47:38;;;;;;;6.68;4.43;;;;;;;;;;4219455;34;20138;-75
2021/11/14 12:50:15;;;;;;;7.97;4.95;;;;;;;;;;4219346;34;20097;-74
2021/11/14 12:52:46;;;;;;;8.18;3.50;;;;;;;;;;4218438;33;20105;-73
2021/11/14 12:55:15;;;;;;;4.75;2.75;;;;;;;;;;4219160;34;20561;-72
2021/11/14 12:58:02;;;;;;;5.57;2.87;;;;;;;;;;4219047;33;20672;-73
2021/11/14 13:00:32;;;;;;;6.28;2.70;;;;;;;;;;4219528;34;20173;-71
2021/11/14 13:02:59;;;;;;;5.10;3.45;;;;;;;;;;4219276;33;20460;-71
2021/11/14 13:05:26;;;;;;;4.35;3.90;;;;;;;;;;4219390;34;20185;-70
2021/11/14 13:07:56;;;;;;;5.43;4.12;;;;;;;;;;4219490;34;20101;-71
2021/11/14 13:10:23;;;;;;;7.00;4.10;;;;;;;;;;4219364;34;20640;-70
2021/11/14 13:12:50;;;;;;;4.28;3.35;;;;;;;;;;4219231;34;20117;-70
2021/11/14 13:15:16;;;;;;;3.10;2.72;;;;;;;;;;4219386;34;20113;-71
2021/11/14 13:17:53;;;;;;;3.55;2.97;;;;;;;;;;4219112;34;20118;-70
2021/11/14 13:20:21;;;;;;;3.35;2.53;;;;;;;;;;4219352;34;20133;-69
2021/11/14 13:22:50;;;;;;;3.80;2.90;;;;;;;;;;4219401;34;20212;-69
2021/11/14 13:25:29;;;;;;;4.35;2.80;;;;;;;;;;4219398;34;20140;-68
2021/11/14 13:27:55;;;;;;;3.22;2.72;;;;;;;;;;4207481;34;20086;-71
2021/11/14 13:30:22;;;;;;;8.02;6.07;;;;;;;;;;4219248;34;20217;-70
2021/11/14 13:32:47;;;;;;;6.80;4.85;;;;;;;;;;4219089;34;20112;-72
2021/11/14 13:35:13;;;;;;;7.50;5.70;;;;;;;;;;4219300;34;20146;-69
2021/11/14 13:37:40;;;;;;;17.83;9.98;;;;;;;;;;4218890;34;20117;-70
2021/11/14 13:40:11;;;;;;;14.27;9.70;;;;;;;;;;4219256;34;20546;-68
2021/11/14 13:42:39;;;;;;;13.68;9.13;;;;;;;;;;4218836;34;20093;-70
2021/11/14 13:45:22;;;;;;;11.75;8.05;;;;;;;;;;4219262;34;20112;-68
2021/11/14 13:47:53;;;;;;;8.35;5.47;;;;;;;;;;4218944;34;20189;-69
2021/11/14 13:50:22;;;;;;;4.10;2.83;;;;;;;;;;4218981;34;20118;-68
2021/11/14 13:52:53;;;;;;;3.80;3.10;;;;;;;;;;4218786;34;20093;-72
2021/11/14 13:55:19;;;;;;;4.55;3.15;;;;;;;;;;4219300;34;20117;-72
2021/11/14 13:57:47;;;;;;;4.80;3.05;;;;;;;;;;4219107;34;20139;-65
2021/11/14 14:00:24;;;;;;;4.65;2.90;;;;;;;;;;4219425;34;20125;-63
2021/11/14 14:02:50;;;;;;;5.72;3.75;;;;;;;;;;4219052;34;20149;-64
2021/11/14 14:05:16;;;;;;;7.43;3.10;;;;;;;;;;4219366;34;20132;-63
2021/11/14 14:07:43;;;;;;;6.00;3.85;;;;;;;;;;4219220;34;20586;-63
2021/11/14 14:10:14;;;;;;;5.95;3.47;;;;;;;;;;4218198;34;20114;-64
2021/11/14 14:12:47;;;;;;;8.70;3.90;;;;;;;;;;4217014;34;20594;-63
2021/11/14 14:15:19;;;;;;;6.03;3.85;;;;;;;;;;4217731;34;20102;-63
2021/11/14 14:17:46;;;;;;;7.28;3.65;;;;;;;;;;4193627;34;20128;-63
2021/11/14 14:20:13;;;;;;;6.62;3.45;;;;;;;;;;4205419;34;20174;-64
2021/11/14 14:22:41;;;;;;;8.45;3.10;;;;;;;;;;4205677;34;20165;-63
2021/11/14 14:25:10;;;;;;;5.12;3.12;;;;;;;;;;4218666;34;20104;-63
2021/11/14 14:27:37;;;;;;;4.57;3.50;;;;;;;;;;4218728;34;20094;-62
2021/11/14 14:30:11;;;;;;;2.72;2.42;;;;;;;;;;4218525;34;20510;-63
2021/11/14 14:32:49;;;;;;;4.20;2.70;;;;;;;;;;4218620;34;20119;-63
2021/11/14 14:35:15;;;;;;;2.37;2.17;;;;;;;;;;4218667;34;20146;-65
2021/11/14 14:37:42;;;;;;;2.65;2.30;;;;;;;;;;4218487;34;20522;-65
2021/11/14 14:40:09;;;;;;;4.30;2.67;;;;;;;;;;4218506;34;20113;-65
2021/11/14 14:42:36;;;;;;;5.65;3.58;;;;;;;;;;4218521;34;20101;-65
2021/11/14 14:45:14;;;;;;;4.95;3.92;;;;;;;;;;4218206;34;20117;-68
2021/11/14 14:47:39;;;;;;;6.50;4.30;;;;;;;;;;4218360;34;20509;-67
2021/11/14 14:50:12;;;;;;;10.43;6.15;;;;;;;;;;4218467;34;20256;-67
2021/11/14 14:52:44;;;;;;;8.73;5.35;;;;;;;;;;4218608;34;20117;-68
2021/11/14 14:55:10;;;;;;;6.93;5.60;;;;;;;;;;4218451;34;20109;-68
2021/11/14 14:57:35;;;;;;;6.93;5.22;;;;;;;;;;4218640;34;20117;-67
2021/11/14 15:00:03;;;;;;;8.73;5.95;;;;;;;;;;4218425;34;20139;-68
2021/11/14 15:02:29;;;;;;;6.07;3.92;;;;;;;;;;4218573;34;20117;-67
2021/11/14 15:04:55;;;;;;;7.37;4.32;;;;;;;;;;4218242;34;20259;-67
2021/11/14 15:07:21;;;;;;;8.45;5.30;;;;;;;;;;4218237;34;20098;-68